sensor_id;sensor_type;location;lat;lon;timestamp;P1;durP1;ratioP1;P2;durP2;ratioP2
1010;SDS011;494;48.744;10.106;2022-07-23T00:02:19;23.33;;;14.27;;
1010;SDS011;494;48.744;10.106;2022-07-23T00:04:49;26.10;;;15.73;;
1010;SDS011;494;48.744;10.106;2022-07-23T00:07:18;22.47;;;13.77;;
1010;SDS011;494;48.744;10.106;2022-07-23T00:09:46;22.87;;;14.57;;
1010;SDS011;494;48.744;10.106;2022-07-23T00:12:15;24.17;;;14.50;;
1010;SDS011;494;48.744;10.106;2022-07-23T00:14:43;23.33;;;14.63;;
1010;SDS011;494;48.744;10.106;2022-07-23T00:17:12;22.30;;;13.80;;
1010;SDS011;494;48.744;10.106;2022-07-23T00:19:41;23.43;;;16.37;;
1010;SDS011;494;48.744;10.106;2022-07-23T00:22:10;24.27;;;14.80;;
1010;SDS011;494;48.744;10.106;2022-07-23T00:24:39;23.30;;;13.90;;
1010;SDS011;494;48.744;10.106;2022-07-23T00:27:07;24.40;;;15.17;;
1010;SDS011;494;48.744;10.106;2022-07-23T00:29:36;23.63;;;14.47;;
1010;SDS011;494;48.744;10.106;2022-07-23T00:32:05;21.97;;;14.80;;
1010;SDS011;494;48.744;10.106;2022-07-23T00:34:33;20.37;;;13.97;;
1010;SDS011;494;48.744;10.106;2022-07-23T00:37:02;24.63;;;15.07;;
1010;SDS011;494;48.744;10.106;2022-07-23T00:39:31;23.47;;;14.40;;
1010;SDS011;494;48.744;10.106;2022-07-23T00:42:00;24.33;;;14.77;;
1010;SDS011;494;48.744;10.106;2022-07-23T00:44:28;23.40;;;14.97;;
1010;SDS011;494;48.744;10.106;2022-07-23T00:46:57;21.53;;;14.80;;
1010;SDS011;494;48.744;10.106;2022-07-23T00:49:28;22.40;;;15.00;;
1010;SDS011;494;48.744;10.106;2022-07-23T00:51:57;22.40;;;14.50;;
1010;SDS011;494;48.744;10.106;2022-07-23T00:54:31;23.30;;;14.40;;
1010;SDS011;494;48.744;10.106;2022-07-23T00:57:00;21.87;;;15.27;;
1010;SDS011;494;48.744;10.106;2022-07-23T00:59:28;23.17;;;15.90;;
1010;SDS011;494;48.744;10.106;2022-07-23T01:01:57;23.33;;;14.93;;
1010;SDS011;494;48.744;10.106;2022-07-23T01:04:26;21.30;;;14.50;;
1010;SDS011;494;48.744;10.106;2022-07-23T01:06:55;25.17;;;15.30;;
1010;SDS011;494;48.744;10.106;2022-07-23T01:09:23;21.70;;;14.03;;
1010;SDS011;494;48.744;10.106;2022-07-23T01:11:54;20.60;;;13.63;;
1010;SDS011;494;48.744;10.106;2022-07-23T01:14:24;23.20;;;15.03;;
1010;SDS011;494;48.744;10.106;2022-07-23T01:16:53;22.67;;;15.30;;
1010;SDS011;494;48.744;10.106;2022-07-23T01:19:22;22.27;;;14.57;;
1010;SDS011;494;48.744;10.106;2022-07-23T01:21:51;24.90;;;14.50;;
1010;SDS011;494;48.744;10.106;2022-07-23T01:24:25;20.53;;;13.70;;
1010;SDS011;494;48.744;10.106;2022-07-23T01:26:54;20.77;;;13.73;;
1010;SDS011;494;48.744;10.106;2022-07-23T01:29:22;21.47;;;14.53;;
1010;SDS011;494;48.744;10.106;2022-07-23T01:31:51;22.93;;;15.10;;
1010;SDS011;494;48.744;10.106;2022-07-23T01:34:20;21.93;;;14.43;;
1010;SDS011;494;48.744;10.106;2022-07-23T01:36:48;22.00;;;14.20;;
1010;SDS011;494;48.744;10.106;2022-07-23T01:39:17;20.27;;;13.90;;
1010;SDS011;494;48.744;10.106;2022-07-23T01:41:46;21.60;;;13.27;;
1010;SDS011;494;48.744;10.106;2022-07-23T01:44:16;20.50;;;13.87;;
1010;SDS011;494;48.744;10.106;2022-07-23T01:46:45;21.90;;;14.70;;
1010;SDS011;494;48.744;10.106;2022-07-23T01:49:13;21.00;;;14.23;;
1010;SDS011;494;48.744;10.106;2022-07-23T01:51:42;21.47;;;14.33;;
1010;SDS011;494;48.744;10.106;2022-07-23T01:54:24;22.43;;;13.50;;
1010;SDS011;494;48.744;10.106;2022-07-23T01:56:55;22.70;;;14.10;;
1010;SDS011;494;48.744;10.106;2022-07-23T01:59:24;31.30;;;15.03;;
1010;SDS011;494;48.744;10.106;2022-07-23T02:01:53;23.83;;;14.40;;
1010;SDS011;494;48.744;10.106;2022-07-23T02:04:23;26.03;;;13.90;;
1010;SDS011;494;48.744;10.106;2022-07-23T02:06:53;21.43;;;13.17;;
1010;SDS011;494;48.744;10.106;2022-07-23T02:09:21;23.50;;;14.07;;
1010;SDS011;494;48.744;10.106;2022-07-23T02:11:50;20.43;;;13.80;;
1010;SDS011;494;48.744;10.106;2022-07-23T02:14:19;21.60;;;14.00;;
1010;SDS011;494;48.744;10.106;2022-07-23T02:16:48;19.20;;;13.17;;
1010;SDS011;494;48.744;10.106;2022-07-23T02:19:16;25.23;;;13.90;;
1010;SDS011;494;48.744;10.106;2022-07-23T02:21:45;20.23;;;12.60;;
1010;SDS011;494;48.744;10.106;2022-07-23T02:24:14;20.70;;;13.03;;
1010;SDS011;494;48.744;10.106;2022-07-23T02:26:43;22.63;;;12.90;;
1010;SDS011;494;48.744;10.106;2022-07-23T02:29:11;22.60;;;13.60;;
1010;SDS011;494;48.744;10.106;2022-07-23T02:31:41;22.43;;;12.60;;
1010;SDS011;494;48.744;10.106;2022-07-23T02:34:10;25.43;;;13.40;;
1010;SDS011;494;48.744;10.106;2022-07-23T02:36:39;22.20;;;12.80;;
1010;SDS011;494;48.744;10.106;2022-07-23T02:39:07;26.20;;;13.97;;
1010;SDS011;494;48.744;10.106;2022-07-23T02:41:36;24.03;;;14.13;;
1010;SDS011;494;48.744;10.106;2022-07-23T02:44:04;20.30;;;13.33;;
1010;SDS011;494;48.744;10.106;2022-07-23T02:46:33;20.50;;;13.07;;
1010;SDS011;494;48.744;10.106;2022-07-23T02:49:03;20.37;;;13.40;;
1010;SDS011;494;48.744;10.106;2022-07-23T02:51:32;19.70;;;12.80;;
1010;SDS011;494;48.744;10.106;2022-07-23T02:54:01;20.60;;;13.17;;
1010;SDS011;494;48.744;10.106;2022-07-23T02:56:30;19.43;;;12.63;;
1010;SDS011;494;48.744;10.106;2022-07-23T02:58:58;26.53;;;13.00;;
1010;SDS011;494;48.744;10.106;2022-07-23T03:01:28;21.20;;;13.17;;
1010;SDS011;494;48.744;10.106;2022-07-23T03:03:56;19.40;;;12.90;;
1010;SDS011;494;48.744;10.106;2022-07-23T03:06:26;20.80;;;13.63;;
1010;SDS011;494;48.744;10.106;2022-07-23T03:08:55;21.87;;;13.93;;
1010;SDS011;494;48.744;10.106;2022-07-23T03:11:24;21.30;;;13.70;;
1010;SDS011;494;48.744;10.106;2022-07-23T03:13:52;21.53;;;13.17;;
1010;SDS011;494;48.744;10.106;2022-07-23T03:16:21;20.90;;;12.97;;
1010;SDS011;494;48.744;10.106;2022-07-23T03:18:50;20.37;;;13.03;;
1010;SDS011;494;48.744;10.106;2022-07-23T03:21:18;19.20;;;12.60;;
1010;SDS011;494;48.744;10.106;2022-07-23T03:23:48;21.90;;;13.57;;
1010;SDS011;494;48.744;10.106;2022-07-23T03:26:17;22.00;;;13.70;;
1010;SDS011;494;48.744;10.106;2022-07-23T03:28:46;23.40;;;13.17;;
1010;SDS011;494;48.744;10.106;2022-07-23T03:31:14;20.03;;;13.07;;
1010;SDS011;494;48.744;10.106;2022-07-23T03:33:45;19.40;;;12.63;;
1010;SDS011;494;48.744;10.106;2022-07-23T03:36:13;19.40;;;12.67;;
1010;SDS011;494;48.744;10.106;2022-07-23T03:38:42;21.33;;;13.53;;
1010;SDS011;494;48.744;10.106;2022-07-23T03:41:12;22.07;;;14.17;;
1010;SDS011;494;48.744;10.106;2022-07-23T03:43:40;22.83;;;13.07;;
1010;SDS011;494;48.744;10.106;2022-07-23T03:46:09;20.03;;;13.40;;
1010;SDS011;494;48.744;10.106;2022-07-23T03:48:38;19.97;;;13.50;;
1010;SDS011;494;48.744;10.106;2022-07-23T03:51:07;21.10;;;13.60;;
1010;SDS011;494;48.744;10.106;2022-07-23T03:53:35;19.00;;;13.17;;
1010;SDS011;494;48.744;10.106;2022-07-23T03:56:04;19.57;;;13.00;;
1010;SDS011;494;48.744;10.106;2022-07-23T03:58:34;19.10;;;13.00;;
1010;SDS011;494;48.744;10.106;2022-07-23T04:01:03;20.93;;;13.30;;
1010;SDS011;494;48.744;10.106;2022-07-23T04:03:32;20.17;;;13.40;;
1010;SDS011;494;48.744;10.106;2022-07-23T04:06:00;20.37;;;12.80;;
1010;SDS011;494;48.744;10.106;2022-07-23T04:08:28;21.13;;;13.20;;
1010;SDS011;494;48.744;10.106;2022-07-23T04:10:57;20.73;;;13.20;;
1010;SDS011;494;48.744;10.106;2022-07-23T04:13:26;18.40;;;12.47;;
1010;SDS011;494;48.744;10.106;2022-07-23T04:15:56;19.37;;;12.50;;
1010;SDS011;494;48.744;10.106;2022-07-23T04:18:24;19.20;;;12.83;;
1010;SDS011;494;48.744;10.106;2022-07-23T04:20:53;20.83;;;13.67;;
1010;SDS011;494;48.744;10.106;2022-07-23T04:23:22;21.10;;;13.83;;
1010;SDS011;494;48.744;10.106;2022-07-23T04:25:52;20.00;;;13.53;;
1010;SDS011;494;48.744;10.106;2022-07-23T04:28:20;20.67;;;13.20;;
1010;SDS011;494;48.744;10.106;2022-07-23T04:30:49;19.97;;;12.77;;
1010;SDS011;494;48.744;10.106;2022-07-23T04:33:19;23.27;;;12.93;;
1010;SDS011;494;48.744;10.106;2022-07-23T04:35:47;21.20;;;13.53;;
1010;SDS011;494;48.744;10.106;2022-07-23T04:38:16;19.67;;;12.97;;
1010;SDS011;494;48.744;10.106;2022-07-23T04:40:44;22.67;;;13.63;;
1010;SDS011;494;48.744;10.106;2022-07-23T04:43:13;19.60;;;12.57;;
1010;SDS011;494;48.744;10.106;2022-07-23T04:45:41;19.10;;;11.93;;
1010;SDS011;494;48.744;10.106;2022-07-23T04:48:10;19.30;;;11.87;;
1010;SDS011;494;48.744;10.106;2022-07-23T04:50:40;18.80;;;11.80;;
1010;SDS011;494;48.744;10.106;2022-07-23T04:53:10;20.73;;;12.87;;
1010;SDS011;494;48.744;10.106;2022-07-23T04:55:38;18.30;;;11.77;;
1010;SDS011;494;48.744;10.106;2022-07-23T04:58:07;18.97;;;12.00;;
1010;SDS011;494;48.744;10.106;2022-07-23T05:00:35;20.30;;;12.67;;
1010;SDS011;494;48.744;10.106;2022-07-23T05:03:04;22.40;;;13.50;;
1010;SDS011;494;48.744;10.106;2022-07-23T05:05:32;20.27;;;12.60;;
1010;SDS011;494;48.744;10.106;2022-07-23T05:08:03;19.87;;;12.67;;
1010;SDS011;494;48.744;10.106;2022-07-23T05:10:33;19.40;;;12.50;;
1010;SDS011;494;48.744;10.106;2022-07-23T05:13:02;18.87;;;11.60;;
1010;SDS011;494;48.744;10.106;2022-07-23T05:15:30;18.97;;;11.70;;
1010;SDS011;494;48.744;10.106;2022-07-23T05:17:59;21.20;;;12.70;;
1010;SDS011;494;48.744;10.106;2022-07-23T05:20:28;21.40;;;12.20;;
1010;SDS011;494;48.744;10.106;2022-07-23T05:22:56;19.63;;;12.80;;
1010;SDS011;494;48.744;10.106;2022-07-23T05:25:27;18.60;;;12.23;;
1010;SDS011;494;48.744;10.106;2022-07-23T05:27:55;21.80;;;12.50;;
1010;SDS011;494;48.744;10.106;2022-07-23T05:30:24;27.67;;;13.50;;
1010;SDS011;494;48.744;10.106;2022-07-23T05:32:53;22.37;;;13.43;;
1010;SDS011;494;48.744;10.106;2022-07-23T05:35:22;23.97;;;14.80;;
1010;SDS011;494;48.744;10.106;2022-07-23T05:37:51;20.53;;;13.30;;
1010;SDS011;494;48.744;10.106;2022-07-23T05:40:20;20.20;;;13.70;;
1010;SDS011;494;48.744;10.106;2022-07-23T05:42:50;20.40;;;12.70;;
1010;SDS011;494;48.744;10.106;2022-07-23T05:45:18;23.13;;;14.20;;
1010;SDS011;494;48.744;10.106;2022-07-23T05:47:47;20.40;;;12.80;;
1010;SDS011;494;48.744;10.106;2022-07-23T05:50:16;20.60;;;14.53;;
1010;SDS011;494;48.744;10.106;2022-07-23T05:52:45;23.70;;;14.70;;
1010;SDS011;494;48.744;10.106;2022-07-23T05:55:14;23.50;;;15.37;;
1010;SDS011;494;48.744;10.106;2022-07-23T05:57:42;24.23;;;14.67;;
1010;SDS011;494;48.744;10.106;2022-07-23T06:00:13;22.50;;;13.60;;
1010;SDS011;494;48.744;10.106;2022-07-23T06:02:42;21.53;;;13.20;;
1010;SDS011;494;48.744;10.106;2022-07-23T06:05:10;21.47;;;13.60;;
1010;SDS011;494;48.744;10.106;2022-07-23T06:07:39;23.13;;;14.07;;
1010;SDS011;494;48.744;10.106;2022-07-23T06:10:08;21.43;;;13.97;;
1010;SDS011;494;48.744;10.106;2022-07-23T06:12:37;19.47;;;12.93;;
1010;SDS011;494;48.744;10.106;2022-07-23T06:15:07;21.63;;;13.57;;
1010;SDS011;494;48.744;10.106;2022-07-23T06:17:38;23.83;;;13.87;;
1010;SDS011;494;48.744;10.106;2022-07-23T06:20:08;20.40;;;13.03;;
1010;SDS011;494;48.744;10.106;2022-07-23T06:22:37;23.17;;;14.33;;
1010;SDS011;494;48.744;10.106;2022-07-23T06:25:06;23.20;;;14.40;;
1010;SDS011;494;48.744;10.106;2022-07-23T06:27:45;20.73;;;13.90;;
1010;SDS011;494;48.744;10.106;2022-07-23T06:30:13;21.57;;;13.53;;
1010;SDS011;494;48.744;10.106;2022-07-23T06:32:45;21.90;;;14.57;;
1010;SDS011;494;48.744;10.106;2022-07-23T06:35:16;21.73;;;13.83;;
1010;SDS011;494;48.744;10.106;2022-07-23T06:37:44;19.90;;;13.40;;
1010;SDS011;494;48.744;10.106;2022-07-23T06:40:14;19.23;;;12.97;;
1010;SDS011;494;48.744;10.106;2022-07-23T06:42:42;20.60;;;13.70;;
1010;SDS011;494;48.744;10.106;2022-07-23T06:45:11;21.10;;;13.10;;
1010;SDS011;494;48.744;10.106;2022-07-23T06:47:39;22.63;;;13.03;;
1010;SDS011;494;48.744;10.106;2022-07-23T06:50:09;22.23;;;14.00;;
1010;SDS011;494;48.744;10.106;2022-07-23T06:52:38;20.73;;;13.77;;
1010;SDS011;494;48.744;10.106;2022-07-23T06:55:08;22.70;;;14.67;;
1010;SDS011;494;48.744;10.106;2022-07-23T06:57:37;22.70;;;14.07;;
1010;SDS011;494;48.744;10.106;2022-07-23T07:00:06;21.37;;;13.87;;
1010;SDS011;494;48.744;10.106;2022-07-23T07:02:36;21.07;;;13.57;;
1010;SDS011;494;48.744;10.106;2022-07-23T07:05:05;22.77;;;14.77;;
1010;SDS011;494;48.744;10.106;2022-07-23T07:07:35;23.90;;;15.10;;
1010;SDS011;494;48.744;10.106;2022-07-23T07:10:04;23.10;;;14.73;;
1010;SDS011;494;48.744;10.106;2022-07-23T07:12:41;22.77;;;14.53;;
1010;SDS011;494;48.744;10.106;2022-07-23T07:15:10;22.03;;;14.37;;
1010;SDS011;494;48.744;10.106;2022-07-23T07:17:39;23.60;;;13.87;;
1010;SDS011;494;48.744;10.106;2022-07-23T07:20:09;25.57;;;13.83;;
1010;SDS011;494;48.744;10.106;2022-07-23T07:22:40;20.10;;;13.17;;
1010;SDS011;494;48.744;10.106;2022-07-23T07:25:08;20.07;;;11.70;;
1010;SDS011;494;48.744;10.106;2022-07-23T07:27:37;22.53;;;11.53;;
1010;SDS011;494;48.744;10.106;2022-07-23T07:30:06;18.80;;;10.33;;
1010;SDS011;494;48.744;10.106;2022-07-23T07:32:36;17.93;;;10.57;;
1010;SDS011;494;48.744;10.106;2022-07-23T07:35:21;18.90;;;11.43;;
1010;SDS011;494;48.744;10.106;2022-07-23T07:37:51;17.17;;;9.80;;
1010;SDS011;494;48.744;10.106;2022-07-23T07:40:20;18.60;;;10.67;;
1010;SDS011;494;48.744;10.106;2022-07-23T07:42:50;18.30;;;10.40;;
1010;SDS011;494;48.744;10.106;2022-07-23T07:45:23;20.60;;;11.03;;
1010;SDS011;494;48.744;10.106;2022-07-23T07:47:52;17.53;;;10.37;;
1010;SDS011;494;48.744;10.106;2022-07-23T07:50:21;18.13;;;10.93;;
1010;SDS011;494;48.744;10.106;2022-07-23T07:52:51;18.20;;;12.10;;
1010;SDS011;494;48.744;10.106;2022-07-23T07:55:20;17.57;;;11.30;;
1010;SDS011;494;48.744;10.106;2022-07-23T07:57:48;19.17;;;12.10;;
1010;SDS011;494;48.744;10.106;2022-07-23T08:00:17;17.60;;;11.77;;
1010;SDS011;494;48.744;10.106;2022-07-23T08:02:47;19.37;;;12.33;;
1010;SDS011;494;48.744;10.106;2022-07-23T08:05:19;18.40;;;11.67;;
1010;SDS011;494;48.744;10.106;2022-07-23T08:07:55;19.03;;;13.00;;
1010;SDS011;494;48.744;10.106;2022-07-23T08:10:25;18.43;;;12.53;;
1010;SDS011;494;48.744;10.106;2022-07-23T08:12:56;21.73;;;13.00;;
1010;SDS011;494;48.744;10.106;2022-07-23T08:15:28;19.30;;;11.97;;
1010;SDS011;494;48.744;10.106;2022-07-23T08:17:58;18.43;;;12.23;;
1010;SDS011;494;48.744;10.106;2022-07-23T08:20:27;19.60;;;13.07;;
1010;SDS011;494;48.744;10.106;2022-07-23T08:22:58;19.50;;;13.03;;
1010;SDS011;494;48.744;10.106;2022-07-23T08:25:32;20.53;;;14.50;;
1010;SDS011;494;48.744;10.106;2022-07-23T08:28:04;21.30;;;14.13;;
1010;SDS011;494;48.744;10.106;2022-07-23T08:30:36;22.07;;;14.70;;
1010;SDS011;494;48.744;10.106;2022-07-23T08:33:07;22.30;;;14.37;;
1010;SDS011;494;48.744;10.106;2022-07-23T08:35:59;20.93;;;14.07;;
1010;SDS011;494;48.744;10.106;2022-07-23T08:38:33;19.90;;;13.13;;
1010;SDS011;494;48.744;10.106;2022-07-23T08:41:02;21.00;;;14.00;;
1010;SDS011;494;48.744;10.106;2022-07-23T08:43:32;22.00;;;14.37;;
1010;SDS011;494;48.744;10.106;2022-07-23T08:46:02;20.37;;;14.20;;
1010;SDS011;494;48.744;10.106;2022-07-23T08:48:32;23.67;;;12.40;;
1010;SDS011;494;48.744;10.106;2022-07-23T08:51:05;21.07;;;13.10;;
1010;SDS011;494;48.744;10.106;2022-07-23T08:53:38;22.30;;;13.53;;
1010;SDS011;494;48.744;10.106;2022-07-23T08:56:08;18.80;;;11.63;;
1010;SDS011;494;48.744;10.106;2022-07-23T08:58:37;20.37;;;12.10;;
1010;SDS011;494;48.744;10.106;2022-07-23T09:01:05;20.90;;;11.20;;
1010;SDS011;494;48.744;10.106;2022-07-23T09:03:35;19.30;;;11.40;;
1010;SDS011;494;48.744;10.106;2022-07-23T09:06:06;21.27;;;12.07;;
1010;SDS011;494;48.744;10.106;2022-07-23T09:08:35;23.63;;;12.90;;
1010;SDS011;494;48.744;10.106;2022-07-23T09:11:08;22.00;;;12.60;;
1010;SDS011;494;48.744;10.106;2022-07-23T09:13:39;19.67;;;12.50;;
1010;SDS011;494;48.744;10.106;2022-07-23T09:16:11;21.23;;;12.50;;
1010;SDS011;494;48.744;10.106;2022-07-23T09:18:43;20.20;;;12.93;;
1010;SDS011;494;48.744;10.106;2022-07-23T09:21:23;22.23;;;13.20;;
1010;SDS011;494;48.744;10.106;2022-07-23T09:23:57;21.80;;;12.80;;
1010;SDS011;494;48.744;10.106;2022-07-23T09:26:31;22.73;;;12.40;;
1010;SDS011;494;48.744;10.106;2022-07-23T09:29:09;19.77;;;12.93;;
1010;SDS011;494;48.744;10.106;2022-07-23T09:31:45;21.10;;;13.30;;
1010;SDS011;494;48.744;10.106;2022-07-23T09:34:18;20.43;;;13.17;;
1010;SDS011;494;48.744;10.106;2022-07-23T09:36:50;20.47;;;13.30;;
1010;SDS011;494;48.744;10.106;2022-07-23T09:39:26;22.20;;;13.57;;
1010;SDS011;494;48.744;10.106;2022-07-23T09:41:57;22.33;;;13.00;;
1010;SDS011;494;48.744;10.106;2022-07-23T09:44:41;22.67;;;13.30;;
1010;SDS011;494;48.744;10.106;2022-07-23T09:47:11;20.80;;;13.07;;
1010;SDS011;494;48.744;10.106;2022-07-23T09:49:40;21.27;;;13.50;;
1010;SDS011;494;48.744;10.106;2022-07-23T09:52:26;21.43;;;15.73;;
1010;SDS011;494;48.744;10.106;2022-07-23T09:55:03;25.80;;;16.60;;
1010;SDS011;494;48.744;10.106;2022-07-23T09:57:34;20.47;;;13.20;;
1010;SDS011;494;48.744;10.106;2022-07-23T10:00:03;21.50;;;14.10;;
1010;SDS011;494;48.744;10.106;2022-07-23T10:02:35;22.00;;;14.50;;
1010;SDS011;494;48.744;10.106;2022-07-23T10:05:04;22.67;;;14.53;;
1010;SDS011;494;48.744;10.106;2022-07-23T10:07:36;21.83;;;13.70;;
1010;SDS011;494;48.744;10.106;2022-07-23T10:10:10;21.93;;;13.07;;
1010;SDS011;494;48.744;10.106;2022-07-23T10:12:43;24.10;;;14.20;;
1010;SDS011;494;48.744;10.106;2022-07-23T10:15:47;23.13;;;17.03;;
1010;SDS011;494;48.744;10.106;2022-07-23T10:18:16;22.07;;;17.00;;
1010;SDS011;494;48.744;10.106;2022-07-23T10:20:45;23.70;;;15.07;;
1010;SDS011;494;48.744;10.106;2022-07-23T10:23:18;24.10;;;15.30;;
1010;SDS011;494;48.744;10.106;2022-07-23T10:25:58;22.73;;;15.10;;
1010;SDS011;494;48.744;10.106;2022-07-23T10:28:44;21.50;;;15.40;;
1010;SDS011;494;48.744;10.106;2022-07-23T10:31:32;21.30;;;15.60;;
1010;SDS011;494;48.744;10.106;2022-07-23T10:34:29;22.47;;;15.40;;
1010;SDS011;494;48.744;10.106;2022-07-23T10:37:12;22.07;;;15.40;;
1010;SDS011;494;48.744;10.106;2022-07-23T10:39:49;21.53;;;15.47;;
1010;SDS011;494;48.744;10.106;2022-07-23T10:42:40;22.90;;;15.87;;
1010;SDS011;494;48.744;10.106;2022-07-23T10:45:25;22.80;;;15.30;;
1010;SDS011;494;48.744;10.106;2022-07-23T10:48:11;23.20;;;17.07;;
1010;SDS011;494;48.744;10.106;2022-07-23T10:50:44;21.10;;;14.67;;
1010;SDS011;494;48.744;10.106;2022-07-23T10:53:52;22.07;;;15.20;;
1010;SDS011;494;48.744;10.106;2022-07-23T11:02:58;21.70;;;14.80;;
1010;SDS011;494;48.744;10.106;2022-07-23T11:05:38;20.23;;;14.10;;
1010;SDS011;494;48.744;10.106;2022-07-23T11:08:10;25.30;;;15.00;;
1010;SDS011;494;48.744;10.106;2022-07-23T11:10:48;21.93;;;14.83;;
1010;SDS011;494;48.744;10.106;2022-07-23T11:16:14;21.50;;;14.43;;
1010;SDS011;494;48.744;10.106;2022-07-23T11:18:53;20.67;;;13.43;;
1010;SDS011;494;48.744;10.106;2022-07-23T11:21:40;20.70;;;13.30;;
1010;SDS011;494;48.744;10.106;2022-07-23T11:24:26;22.60;;;13.43;;
1010;SDS011;494;48.744;10.106;2022-07-23T11:26:59;19.90;;;13.47;;
1010;SDS011;494;48.744;10.106;2022-07-23T11:32:27;20.37;;;12.70;;
1010;SDS011;494;48.744;10.106;2022-07-23T11:35:01;24.60;;;13.43;;
1010;SDS011;494;48.744;10.106;2022-07-23T11:37:46;20.93;;;14.67;;
1010;SDS011;494;48.744;10.106;2022-07-23T11:40:16;22.13;;;13.33;;
1010;SDS011;494;48.744;10.106;2022-07-23T11:42:52;20.63;;;14.07;;
1010;SDS011;494;48.744;10.106;2022-07-23T11:45:25;21.90;;;14.50;;
1010;SDS011;494;48.744;10.106;2022-07-23T11:48:01;20.60;;;14.13;;
1010;SDS011;494;48.744;10.106;2022-07-23T11:50:35;21.10;;;14.07;;
1010;SDS011;494;48.744;10.106;2022-07-23T11:53:04;20.73;;;12.60;;
1010;SDS011;494;48.744;10.106;2022-07-23T11:55:33;22.17;;;13.73;;
1010;SDS011;494;48.744;10.106;2022-07-23T11:58:01;20.10;;;12.23;;
1010;SDS011;494;48.744;10.106;2022-07-23T12:00:31;20.60;;;12.67;;
1010;SDS011;494;48.744;10.106;2022-07-23T12:03:07;22.03;;;13.27;;
1010;SDS011;494;48.744;10.106;2022-07-23T12:05:36;21.30;;;13.77;;
1010;SDS011;494;48.744;10.106;2022-07-23T12:08:06;20.90;;;12.37;;
1010;SDS011;494;48.744;10.106;2022-07-23T12:10:37;23.90;;;13.87;;
1010;SDS011;494;48.744;10.106;2022-07-23T12:13:09;19.70;;;12.50;;
1010;SDS011;494;48.744;10.106;2022-07-23T12:15:42;22.30;;;12.80;;
1010;SDS011;494;48.744;10.106;2022-07-23T12:18:14;20.03;;;13.00;;
1010;SDS011;494;48.744;10.106;2022-07-23T12:20:48;22.77;;;13.80;;
1010;SDS011;494;48.744;10.106;2022-07-23T12:23:19;21.00;;;13.50;;
1010;SDS011;494;48.744;10.106;2022-07-23T12:25:50;19.90;;;12.47;;
1010;SDS011;494;48.744;10.106;2022-07-23T12:28:21;22.00;;;12.43;;
1010;SDS011;494;48.744;10.106;2022-07-23T12:30:55;22.77;;;12.97;;
1010;SDS011;494;48.744;10.106;2022-07-23T12:33:28;21.20;;;12.60;;
1010;SDS011;494;48.744;10.106;2022-07-23T12:35:59;20.47;;;12.07;;
1010;SDS011;494;48.744;10.106;2022-07-23T12:38:36;20.77;;;13.90;;
1010;SDS011;494;48.744;10.106;2022-07-23T12:41:07;23.60;;;13.20;;
1010;SDS011;494;48.744;10.106;2022-07-23T12:43:36;21.80;;;13.70;;
1010;SDS011;494;48.744;10.106;2022-07-23T12:46:08;19.70;;;12.30;;
1010;SDS011;494;48.744;10.106;2022-07-23T12:48:49;20.20;;;12.80;;
1010;SDS011;494;48.744;10.106;2022-07-23T12:51:20;25.47;;;13.30;;
1010;SDS011;494;48.744;10.106;2022-07-23T12:53:52;21.57;;;12.90;;
1010;SDS011;494;48.744;10.106;2022-07-23T12:56:27;24.83;;;13.53;;
1010;SDS011;494;48.744;10.106;2022-07-23T12:58:58;23.47;;;13.67;;
1010;SDS011;494;48.744;10.106;2022-07-23T13:01:37;22.60;;;12.20;;
1010;SDS011;494;48.744;10.106;2022-07-23T13:04:11;18.63;;;11.90;;
1010;SDS011;494;48.744;10.106;2022-07-23T13:06:43;21.20;;;12.30;;
1010;SDS011;494;48.744;10.106;2022-07-23T13:09:15;19.73;;;11.90;;
1010;SDS011;494;48.744;10.106;2022-07-23T13:11:47;22.90;;;12.87;;
1010;SDS011;494;48.744;10.106;2022-07-23T13:14:18;20.67;;;13.40;;
1010;SDS011;494;48.744;10.106;2022-07-23T13:16:48;18.73;;;11.87;;
1010;SDS011;494;48.744;10.106;2022-07-23T13:19:21;19.13;;;11.70;;
1010;SDS011;494;48.744;10.106;2022-07-23T13:21:52;20.07;;;12.30;;
1010;SDS011;494;48.744;10.106;2022-07-23T13:24:20;21.90;;;13.77;;
1010;SDS011;494;48.744;10.106;2022-07-23T13:26:49;26.23;;;17.70;;
1010;SDS011;494;48.744;10.106;2022-07-23T13:29:18;19.90;;;12.53;;
1010;SDS011;494;48.744;10.106;2022-07-23T13:31:47;20.50;;;12.00;;
1010;SDS011;494;48.744;10.106;2022-07-23T13:34:16;21.30;;;12.03;;
1010;SDS011;494;48.744;10.106;2022-07-23T13:36:47;22.73;;;12.50;;
1010;SDS011;494;48.744;10.106;2022-07-23T13:39:15;19.07;;;11.80;;
1010;SDS011;494;48.744;10.106;2022-07-23T13:41:44;19.40;;;11.50;;
1010;SDS011;494;48.744;10.106;2022-07-23T13:44:16;19.00;;;11.83;;
1010;SDS011;494;48.744;10.106;2022-07-23T13:46:47;18.40;;;11.17;;
1010;SDS011;494;48.744;10.106;2022-07-23T13:49:17;19.87;;;11.37;;
1010;SDS011;494;48.744;10.106;2022-07-23T13:51:49;18.60;;;11.63;;
1010;SDS011;494;48.744;10.106;2022-07-23T13:54:18;18.23;;;10.50;;
1010;SDS011;494;48.744;10.106;2022-07-23T13:56:48;19.10;;;11.20;;
1010;SDS011;494;48.744;10.106;2022-07-23T13:59:16;21.80;;;13.93;;
1010;SDS011;494;48.744;10.106;2022-07-23T14:01:45;22.70;;;12.80;;
1010;SDS011;494;48.744;10.106;2022-07-23T14:04:34;21.00;;;14.20;;
1010;SDS011;494;48.744;10.106;2022-07-23T14:07:04;19.57;;;12.17;;
1010;SDS011;494;48.744;10.106;2022-07-23T14:09:33;20.13;;;12.10;;
1010;SDS011;494;48.744;10.106;2022-07-23T14:12:02;20.23;;;11.50;;
1010;SDS011;494;48.744;10.106;2022-07-23T14:14:32;19.67;;;11.43;;
1010;SDS011;494;48.744;10.106;2022-07-23T14:17:21;18.67;;;11.03;;
1010;SDS011;494;48.744;10.106;2022-07-23T14:19:52;19.50;;;10.90;;
1010;SDS011;494;48.744;10.106;2022-07-23T14:22:22;19.40;;;12.70;;
1010;SDS011;494;48.744;10.106;2022-07-23T14:24:51;20.60;;;11.23;;
1010;SDS011;494;48.744;10.106;2022-07-23T14:27:19;19.13;;;11.80;;
1010;SDS011;494;48.744;10.106;2022-07-23T14:29:48;19.23;;;12.13;;
1010;SDS011;494;48.744;10.106;2022-07-23T14:32:17;19.13;;;11.90;;
1010;SDS011;494;48.744;10.106;2022-07-23T14:34:47;20.83;;;12.87;;
1010;SDS011;494;48.744;10.106;2022-07-23T14:37:16;19.70;;;12.70;;
1010;SDS011;494;48.744;10.106;2022-07-23T14:39:47;19.10;;;11.80;;
1010;SDS011;494;48.744;10.106;2022-07-23T14:42:16;20.00;;;12.50;;
1010;SDS011;494;48.744;10.106;2022-07-23T14:44:46;18.87;;;11.57;;
1010;SDS011;494;48.744;10.106;2022-07-23T14:47:14;19.50;;;12.10;;
1010;SDS011;494;48.744;10.106;2022-07-23T14:49:47;20.47;;;11.87;;
1010;SDS011;494;48.744;10.106;2022-07-23T14:52:16;20.63;;;11.13;;
1010;SDS011;494;48.744;10.106;2022-07-23T14:54:46;18.70;;;11.20;;
1010;SDS011;494;48.744;10.106;2022-07-23T14:57:15;19.07;;;11.40;;
1010;SDS011;494;48.744;10.106;2022-07-23T14:59:50;19.50;;;10.47;;
1010;SDS011;494;48.744;10.106;2022-07-23T15:02:20;18.50;;;11.17;;
1010;SDS011;494;48.744;10.106;2022-07-23T15:04:49;18.70;;;11.17;;
1010;SDS011;494;48.744;10.106;2022-07-23T15:07:17;21.07;;;12.30;;
1010;SDS011;494;48.744;10.106;2022-07-23T15:09:47;20.83;;;12.10;;
1010;SDS011;494;48.744;10.106;2022-07-23T15:12:16;20.20;;;11.90;;
1010;SDS011;494;48.744;10.106;2022-07-23T15:14:47;20.77;;;12.57;;
1010;SDS011;494;48.744;10.106;2022-07-23T15:17:16;21.03;;;12.10;;
1010;SDS011;494;48.744;10.106;2022-07-23T15:19:46;21.37;;;13.00;;
1010;SDS011;494;48.744;10.106;2022-07-23T15:22:16;20.50;;;12.87;;
1010;SDS011;494;48.744;10.106;2022-07-23T15:24:45;20.90;;;13.37;;